Tiempo atmosférico en la estación meteorológica de Barbate, Cádiz (4 m.)

Fecha
DESCASC
Temp. máxima en grados centígrados (hora)
DESCASC
Temp. mínima en grados centígrados (hora)
DESCASC
Temp. media en grados centígrados
DESCASC
Racha de viento máxima en m/sg (hora)
DESCASC
Velocidad máxima media en intervalos de 10 minutos(hora)
DESCASC
Precipitaciones diarias en mm
DESCASC
Precipitaciones de 00:00 a 06:00 en mm
DESCASC
Precipitaciones de 06:00 a 12:00 en mm
DESCASC
Precipitaciones de 12:00 a 18:00 en mm
DESCASC
Precipitaciones de 18:00 a 24:00 en mm
DESCASC
23-11-2017 22.5 (15:20) 7.8 (07:30) 15.2 5.28 (12:50) 4.72 (14:00) 0 0 0 0 0
22-11-2017 22 (12:40) 9.9 (23:59) 15.9 8.33 (14:20) 6.94 (14:00) 0 0 0 0 0
21-11-2017 22.9 (12:40) 12.2 (23:40) 17.5 10.28 (14:10) 8.06 (14:10) 0 0 0 0 0
20-11-2017 23.8 (14:10) 15.1 (23:20) 19.4 14.72 (00:10) 6.67 (02:00) 0 0 0 0 0
19-11-2017 21.1 (14:20) 15 (00:00) 18.1 16.39 (12:00) 9.17 (01:00) 0 0 0 0 0
18-11-2017 21.5 (14:30) 13 (00:00) 17.3 11.11 (22:10) 6.94 (16:50) 0 0 0 0 0
17-11-2017 22.9 (15:20) 11.8 (00:00) 17.3 7.22 (14:30) 4.72 (13:40) 0 0 0 0 0
16-11-2017 22.2 (14:40) 11.3 (00:00) 16.8 4.72 (15:10) 3.89 (15:10) 0 0 0 0 0
15-11-2017 20.9 (13:30) 12.6 (00:00) 16.8 11.94 (15:00) 8.33 (14:50) 0 0 0 0 0
14-11-2017 20.8 (14:30) 7.3 (00:00) 14 6.11 (23:20) 3.61 (14:10) 0 0 0 0 0
13-11-2017 20 (12:20) 7.9 (00:00) 14 10 (12:50) 7.78 (13:40) 0 0 0 0 0
12-11-2017 21.7 (15:00) 7.4 (00:00) 14.6 8.06 (15:50) 6.39 (15:20) 0 0 0 0 0
11-11-2017 22.9 (16:00) 7.3 (00:00) 15.1 5.56 (06:10) 4.44 (14:50) 0 0 0 0 0
10-11-2017 21.4 (16:00) 7.1 (00:00) 14.2 9.44 (15:40) 6.11 (17:30) 0 0 0 0 0
09-11-2017 22 (14:20) 9.9 (00:00) 15.9 7.22 (17:00) 4.72 (17:20) 0 0 0 0 0
08-11-2017 22.1 (14:00) 9.7 (00:00) 15.9 6.11 (16:50) 4.44 (14:40) 0 0 0 0 0
07-11-2017 23.1 (13:30) 11.8 (00:00) 17.5 6.11 (09:00) 3.89 (09:00) 0 0 0 0 0
06-11-2017 22.9 (15:50) 12 (00:00) 17.4 12.22 (12:50) 8.06 (13:00) 0 0 0 0 0
05-11-2017 21.7 (14:50) 14.2 (00:00) 18 8.61 (14:00) 6.94 (13:40) 0.2 0 0.2 0 0
04-11-2017 22 (15:10) 17.4 (00:00) 19.7 14.72 (03:30) 9.72 (03:20) 6.2 3.8 1.6 0.2 0.6
03-11-2017 22.8 (12:50) 15.2 (00:00) 19 10 (18:00) 8.06 (18:40) 1 0 0 0 1
02-11-2017 23.4 (14:40) 17.7 (23:59) 20.6 9.72 (12:50) 7.5 (03:00) 0 0 0 0 0
01-11-2017 26.2 (14:00) 19 (00:00) 22.6 15 (08:50) 9.17 (12:30) 0 0 0 0 0
31-10-2017 25 (14:00) 18 (00:00) 21.5 15 (15:50) 9.72 (15:50) 0 0 0 0 0
30-10-2017 25.1 (12:00) 14.4 (00:00) 19.8 9.72 (16:50) 7.22 (16:10) 0 0 0 0 0
29-10-2017 27.2 (13:30) 17.2 (00:00) 22.2 12.5 (02:00) 7.5 (02:00) 0 0 0 0 0
28-10-2017 26.4 (13:10) 12.9 (00:00) 19.6 12.22 (22:20) 7.78 (22:20) 0 0 0 0 0
27-10-2017 29.2 (16:00) 18.5 (00:00) 23.9 17.78 (09:10) 9.17 (11:10) 0 0 0 0 0
26-10-2017 28 (15:40) 20.3 (00:00) 24.1 15.56 (19:10) 11.67 (16:10) 0 0 0 0 0

Gráficas

Temp. máximas Temp. mínimas Temp. medias Precipitaciones Rachas de viento máximas Velocidades máximas media en intervalos de 10 minutos

Datos horarios

Fecha y hora oficial Temperatura (ºC) Velocidad del viento (km/h) Dirección del viento Racha (km/h) Dirección de racha Precipitación (mm) Presión (hPa) Tendencia (hPa) Humedad (%)
2017-11-24 23:00:00 12.1 9 Nordeste 13 Nordeste 0 -- -- 75
2017-11-24 22:00:00 13.7 8 Norte 10 Norte 0 -- -- 69
2017-11-24 21:00:00 16.7 4 Oeste 11 Norte 0 -- -- 61
2017-11-24 20:00:00 16.9 7 Norte 11 Norte 0 -- -- 56
2017-11-24 19:00:00 18.3 6 Norte 8 Norte 0 -- -- 68
2017-11-24 18:00:00 20.9 5 Sudoeste 12 Sur 0 -- -- 68
2017-11-24 17:00:00 22.4 11 Sur 15 Sur 0 -- -- 69
2017-11-24 16:00:00 23 11 Sur 16 Sur 0 -- -- 66
2017-11-24 15:00:00 23.2 12 Sur 17 Sur 0 -- -- 67
2017-11-24 14:00:00 23.5 12 Sur 14 Sur 0 -- -- 68
2017-11-24 13:00:00 22.9 10 Oeste 13 Oeste 0 -- -- 58
2017-11-24 12:00:00 22.1 5 Sudoeste 6 Sudoeste 0 -- -- 51
2017-11-24 11:00:00 17.3 4 Nordeste 10 Nordeste 0 -- -- 59
2017-11-24 10:00:00 13.7 6 Norte 10 Norte 0 -- -- 75
2017-11-24 09:00:00 10.8 8 Nordeste 12 Nordeste 0 -- -- 88
2017-11-24 08:00:00 10.7 8 Norte 11 Norte 0 -- -- 85
2017-11-24 07:00:00 11.8 6 Norte 10 Norte 0 -- -- 79
2017-11-24 06:00:00 11.4 7 Norte 11 Norte 0 -- -- 86
2017-11-24 05:00:00 11.8 7 Nordeste 9 Nordeste 0 -- -- 84
2017-11-24 04:00:00 12.6 6 Norte 9 Norte 0 -- -- 81
2017-11-24 03:00:00 12.8 6 Norte 8 Norte 0 -- -- 82
2017-11-24 02:00:00 13.9 8 Nordeste 10 Nordeste 0 -- -- 79
2017-11-24 01:00:00 14.4 6 Nordeste 9 Nordeste 0 -- -- 77
2017-11-24 00:00:00 14.6 6 Norte 9 Norte 0 -- -- 75
2017-11-23 23:00:00 14.3 6 Nordeste 9 Nordeste 0 -- -- 78
2017-11-23 22:00:00 14.6 6 Norte 10 Norte 0 -- -- 74
2017-11-23 21:00:00 15.4 7 Norte 12 Norte 0 -- -- 74
2017-11-23 20:00:00 14.7 8 Norte 13 Nordeste 0 -- -- 78
2017-11-23 19:00:00 18.1 0 Calma 8 Sur 0 -- -- 86
2017-11-23 18:00:00 19.8 4 Sur 10 Sur 0 -- -- 82
2017-11-23 17:00:00 21.6 9 Sur 13 Sur 0 -- -- 76
2017-11-23 16:00:00 22 10 Sur 14 Sur 0 -- -- 73
2017-11-23 15:00:00 22.2 13 Sur 19 Sur 0 -- -- 74
2017-11-23 14:00:00 22.2 17 Sur 19 Sur 0 -- -- 73
2017-11-23 13:00:00 21.8 15 Sur 19 Sur 0 -- -- 70
2017-11-23 12:00:00 20.2 5 Sudoeste 9 Sudoeste 0 -- -- 68
2017-11-23 11:00:00 14.5 6 Norte 14 Norte 0 -- -- 71
2017-11-23 10:00:00 11.1 9 Norte 17 Norte 0 -- -- 78
2017-11-23 09:00:00 8.4 11 Norte 16 Nordeste 0 -- -- 93
2017-11-23 08:00:00 7.9 9 Norte 14 Norte 0 -- -- 93
2017-11-23 07:00:00 8.3 9 Norte 13 Norte 0 -- -- 92
2017-11-23 06:00:00 8.8 10 Norte 14 Norte 0 -- -- 91
2017-11-23 05:00:00 8.4 9 Nordeste 15 Nordeste 0 -- -- 92
2017-11-23 04:00:00 8.7 9 Norte 12 Nordeste 0 -- -- 92
2017-11-23 03:00:00 8.5 9 Nordeste 13 Nordeste 0 -- -- 91
2017-11-23 02:00:00 8.8 8 Norte 12 Norte 0 -- -- 92
2017-11-23 01:00:00 9.3 9 Nordeste 13 Norte 0 -- -- 90
2017-11-23 00:00:00 9.9 10 Nordeste 12 Nordeste 0 -- -- 90
2017-11-22 23:00:00 11.3 8 Norte 12 Nordeste 0 -- -- 87
2017-11-22 22:00:00 11.9 9 Nordeste 12 Nordeste 0 -- -- 90
2017-11-22 21:00:00 13.7 8 Norte 13 Norte 0 -- -- 86
2017-11-22 20:00:00 16.4 4 Norte 14 Sur 0 -- -- 84
2017-11-22 19:00:00 18 12 Sur 16 Sur 0 -- -- 84
2017-11-22 18:00:00 18.9 13 Sur 18 Sur 0 -- -- 78
2017-11-22 17:00:00 20.5 16 Sur 20 Sur 0 -- -- 73
2017-11-22 16:00:00 21 16 Sur 22 Sur 0 -- -- 68
2017-11-22 15:00:00 20.1 17 Sur 30 Sur 0 -- -- 71
2017-11-22 14:00:00 20.4 25 Sur 29 Sur 0 -- -- 74
2017-11-22 13:00:00 21.3 22 Sur 25 Sur 0 -- -- 71
2017-11-22 12:00:00 20.2 5 Sudoeste 10 Oeste 0 -- -- 63
2017-11-22 11:00:00 16.6 5 Nordeste 9 Nordeste 0 -- -- 71
2017-11-22 10:00:00 13.6 5 Norte 10 Norte 0 -- -- 82
2017-11-22 09:00:00 10.4 7 Norte 13 Este 0 -- -- 91
2017-11-22 08:00:00 11.4 9 Noroeste 13 Noroeste 0 -- -- 86
2017-11-22 07:00:00 11.3 7 Norte 12 Norte 0 -- -- 87
2017-11-22 06:00:00 11.2 7 Norte 13 Norte 0 -- -- 88
2017-11-22 05:00:00 11.3 7 Norte 12 Norte 0 -- -- 86
2017-11-22 04:00:00 11.9 7 Norte 14 Noroeste 0 -- -- 85
2017-11-22 03:00:00 12.1 8 Norte 17 Norte 0 -- -- 79
2017-11-22 02:00:00 12.1 13 Norte 17 Norte 0 -- -- 76
2017-11-22 01:00:00 12.5 10 Norte 18 Norte 0 -- -- 74
2017-11-22 00:00:00 12.3 8 Norte 13 Norte 0 -- -- 71
2017-11-21 23:00:00 12.8 7 Norte 12 Norte 0 -- -- 64
2017-11-21 22:00:00 13.8 7 Norte 11 Norte 0 -- -- 60
2017-11-21 21:00:00 14.5 6 Norte 14 Norte 0 -- -- 59
2017-11-21 20:00:00 15.5 8 Norte 14 Noroeste 0 -- -- 55
2017-11-21 19:00:00 16.9 5 Norte 11 Noroeste 0 -- -- 58
2017-11-21 18:00:00 20 3 Noroeste 23 Sur 0 -- -- 68
2017-11-21 17:00:00 21.6 19 Sur 30 Sur 0 -- -- 60
2017-11-21 16:00:00 21.7 24 Sur 31 Sur 0 -- -- 61
2017-11-21 15:00:00 21.6 26 Sur 37 Sur 0 -- -- 65
2017-11-21 14:00:00 21.2 28 Sur 33 Sur 0 -- -- 73
2017-11-21 13:00:00 22.6 14 Sur 21 Sur 0 -- -- 63
2017-11-21 12:00:00 21.7 10 Sudoeste 12 Sudoeste 0 -- -- 66
2017-11-21 11:00:00 20.2 6 Oeste 12 Sudoeste 0 -- -- 65
2017-11-21 10:00:00 16.2 4 Norte 9 Norte 0 -- -- 78
2017-11-21 09:00:00 13 4 Norte 10 Norte 0 -- -- 85
2017-11-21 08:00:00 12.9 7 Norte 12 Norte 0 -- -- 85
2017-11-21 07:00:00 13.2 8 Norte 10 Norte 0 -- -- 87
2017-11-21 06:00:00 13.8 6 Norte 14 Nordeste 0 -- -- 81
2017-11-21 05:00:00 14.5 12 Nordeste 21 Nordeste 0 -- -- 80
2017-11-21 04:00:00 14.8 8 Nordeste 17 Nordeste 0 -- -- 75
2017-11-21 03:00:00 14.8 11 Nordeste 19 Nordeste 0 -- -- 76
2017-11-21 02:00:00 14.3 11 Nordeste 16 Este 0 -- -- 76
2017-11-21 01:00:00 14.6 7 Nordeste 15 Nordeste 0 -- -- 78
2017-11-21 00:00:00 15.2 6 Norte 15 Nordeste 0 -- -- 76
2017-11-20 23:00:00 15.4 10 Nordeste 19 Este 0 -- -- 77
2017-11-20 22:00:00 15.7 5 Norte 19 Nordeste 0 -- -- 74
2017-11-20 21:00:00 16.1 8 Norte 20 Norte 0 -- -- 71
2017-11-20 20:00:00 18.1 8 Norte 36 Sudeste 0 -- -- 58
2017-11-20 19:00:00 19.2 10 Este 30 Sudeste 0 -- -- 43
2017-11-20 18:00:00 19.4 10 Este 27 Nordeste 0 -- -- 53
2017-11-20 17:00:00 21.8 13 Este 32 Este 0 -- -- 47
2017-11-20 16:00:00 22.8 21 Este 34 Este 0 -- -- 46
2017-11-20 15:00:00 23.6 22 Este 38 Este 0 -- -- 43
2017-11-20 14:00:00 23.7 18 Este 36 Este 0 -- -- 44
2017-11-20 13:00:00 22.8 23 Este 36 Sudeste 0 -- -- 50
2017-11-20 12:00:00 22.7 8 Sudoeste 23 Sudeste 0 -- -- 58
2017-11-20 11:00:00 21 6 Este 23 Este 0 -- -- 60
2017-11-20 10:00:00 19.2 7 Este 19 Este 0 -- -- 64
2017-11-20 09:00:00 17 10 Este 23 Nordeste 0 -- -- 72
2017-11-20 08:00:00 16.7 13 Este 39 Este 0 -- -- 74
2017-11-20 07:00:00 16.5 16 Este 40 Nordeste 0 -- -- 75
2017-11-20 06:00:00 16.1 20 Este 40 Este 0 -- -- 79
2017-11-20 05:00:00 16.1 18 Este 50 Nordeste 0 -- -- 78
2017-11-20 04:00:00 16.2 9 Nordeste 44 Nordeste 0 -- -- 78
2017-11-20 03:00:00 16.6 18 Este 42 Este 0 -- -- 77
2017-11-20 02:00:00 16.6 24 Este 43 Este 0 -- -- 77
2017-11-20 01:00:00 16.5 21 Este 53 Este 0 -- -- 77
2017-11-20 00:00:00 16.6 18 Este 36 Nordeste 0 -- -- 75
2017-11-19 23:00:00 16.1 10 Nordeste 33 Este 0 -- -- 75
2017-11-19 22:00:00 16.9 22 Este 36 Este 0 -- -- 71
2017-11-19 21:00:00 16.5 17 Este 36 Este 0 -- -- 76
2017-11-19 20:00:00 16.8 20 Este 33 Este 0 -- -- 76
2017-11-19 19:00:00 16.9 17 Este 30 Este 0 -- -- 77
2017-11-19 18:00:00 17.8 25 Este 37 Este 0 -- -- 72
2017-11-19 17:00:00 19.4 24 Este 39 Este 0 -- -- 65
2017-11-19 16:00:00 20.3 30 Este 42 Este 0 -- -- 62
2017-11-19 15:00:00 20.9 25 Este 45 Este 0 -- -- 60
2017-11-19 14:00:00 20.8 23 Este 46 Este 0 -- -- 62
2017-11-19 13:00:00 20.6 24 Este 55 Este 0 -- -- 61
2017-11-19 12:00:00 20.1 22 Sudeste 59 Este 0 -- -- 61
2017-11-19 11:00:00 19 20 Este 35 Sudeste 0 -- -- 70
2017-11-19 10:00:00 17.9 13 Este 30 Este 0 -- -- 74
2017-11-19 09:00:00 16.4 11 Nordeste 36 Este 0 -- -- 76
2017-11-19 08:00:00 15.9 14 Norte 28 Nordeste 0 -- -- 78
2017-11-19 07:00:00 15.4 8 Nordeste 41 Nordeste 0 -- -- 81
2017-11-19 06:00:00 15.8 15 Nordeste 40 Este 0 -- -- 78
2017-11-19 05:00:00 15.8 23 Este 45 Este 0 -- -- 77
2017-11-19 04:00:00 15.9 33 Este 52 Este 0 -- -- 76
2017-11-19 03:00:00 15.8 30 Este 45 Este 0 -- -- 79
2017-11-19 02:00:00 16.1 26 Este 49 Este 0 -- -- 76
2017-11-19 01:00:00 16.3 33 Este 46 Este 0 -- -- 72
2017-11-19 00:00:00 15 24 Este 35 Este 0 -- -- 82
2017-11-18 23:00:00 15.1 9 Norte 40 Nordeste 0 -- -- 81
2017-11-18 22:00:00 15.9 24 Este 37 Este 0 -- -- 73
2017-11-18 21:00:00 15.6 20 Este 31 Este 0 -- -- 73
2017-11-18 20:00:00 14.9 10 Nordeste 15 Nordeste 0 -- -- 79
2017-11-18 19:00:00 15.9 8 Nordeste 31 Este 0 -- -- 75
2017-11-18 18:00:00 17.8 18 Este 30 Sudeste 0 -- -- 69
2017-11-18 17:00:00 19.4 22 Este 35 Este 0 -- -- 65
2017-11-18 16:00:00 20.7 21 Este 31 Este 0 -- -- 61
2017-11-18 15:00:00 21.1 16 Este 27 Este 0 -- -- 60
2017-11-18 14:00:00 21.1 16 Este 26 Este 0 -- -- 61
2017-11-18 13:00:00 20.4 15 Este 27 Este 0 -- -- 64
2017-11-18 12:00:00 19.8 15 Este 27 Este 0 -- -- 66
2017-11-18 11:00:00 18.6 15 Este 25 Este 0 -- -- 70
2017-11-18 10:00:00 16.8 14 Este 26 Este 0 -- -- 79
2017-11-18 09:00:00 13.7 7 Norte 25 Este 0 -- -- 89
2017-11-18 08:00:00 13.3 8 Nordeste 24 Este 0 -- -- 89
2017-11-18 07:00:00 13.4 11 Nordeste 19 Este 0 -- -- 90
2017-11-18 06:00:00 13.7 13 Este 22 Este 0 -- -- 90
2017-11-18 05:00:00 13.3 6 Norte 19 Nordeste 0 -- -- 89
2017-11-18 04:00:00 13.8 13 Nordeste 18 Este 0 -- -- 88
2017-11-18 03:00:00 13.6 8 Nordeste 16 Nordeste 0 -- -- 89
2017-11-18 02:00:00 13.6 8 Nordeste 17 Nordeste 0 -- -- 89
2017-11-18 01:00:00 13.3 6 Norte 17 Nordeste 0 -- -- 88
2017-11-18 00:00:00 14 7 Nordeste 20 Nordeste 0 -- -- 86
2017-11-17 23:00:00 13.5 7 Nordeste 20 Nordeste 0 -- -- 90
2017-11-17 22:00:00 14.2 9 Norte 16 Nordeste 0 -- -- 87
2017-11-17 21:00:00 14.6 11 Norte 18 Norte 0 -- -- 84
2017-11-17 20:00:00 15.2 10 Nordeste 16 Nordeste 0 -- -- 82
2017-11-17 19:00:00 16.1 9 Este 23 Este 0 -- -- 76
2017-11-17 18:00:00 18.3 12 Este 23 Este 0 -- -- 68
2017-11-17 17:00:00 20.7 15 Este 22 Este 0 -- -- 59
2017-11-17 16:00:00 21.8 12 Este 20 Este 0 -- -- 58
2017-11-17 15:00:00 22.3 12 Sur 26 Sur 0 -- -- 63
2017-11-17 14:00:00 21.8 16 Sur 25 Sur 0 -- -- 68
2017-11-17 13:00:00 21.9 13 Sudoeste 15 Sudoeste 0 -- -- 66
2017-11-17 12:00:00 20.3 3 Noroeste 14 Este 0 -- -- 67
2017-11-17 11:00:00 18.6 10 Este 17 Este 0 -- -- 72
2017-11-17 10:00:00 15.5 6 Norte 13 Norte 0 -- -- 92
2017-11-17 09:00:00 12.7 6 Norte 14 Norte 0 -- -- 96
2017-11-17 08:00:00 11.9 6 Norte 12 Nordeste 0 -- -- 95
2017-11-17 07:00:00 12.1 7 Norte 14 Nordeste 0 -- -- 95
2017-11-17 06:00:00 12.2 6 Norte 12 Norte 0 -- -- 95
2017-11-17 05:00:00 12.4 6 Norte 12 Norte 0 -- -- 95
2017-11-17 04:00:00 12.3 7 Norte 14 Norte 0 -- -- 95
2017-11-17 03:00:00 12.8 8 Norte 17 Norte 0 -- -- 95
2017-11-17 02:00:00 12.6 7 Norte 12 Norte 0 -- -- 94
2017-11-17 01:00:00 12.8 4 Norte 9 Norte 0 -- -- 94
2017-11-17 00:00:00 12.7 6 Norte 11 Norte 0 -- -- 93
2017-11-16 23:00:00 13.1 6 Norte 10 Norte 0 -- -- 91
2017-11-16 22:00:00 13.7 5 Norte 12 Norte 0 -- -- 90
2017-11-16 21:00:00 14.3 6 Norte 12 Nordeste 0 -- -- 87
2017-11-16 20:00:00 15 10 Nordeste 13 Nordeste 0 -- -- 86
2017-11-16 19:00:00 17.7 0 Calma 14 Sur 0 -- -- 77
2017-11-16 18:00:00 19.7 9 Oeste 14 Sudoeste 0 -- -- 73
2017-11-16 17:00:00 21.8 9 Oeste 15 Sudoeste 0 -- -- 65
2017-11-16 16:00:00 21.8 10 Sur 17 Sur 0 -- -- 67
2017-11-16 15:00:00 22 12 Sur 14 Sur 0 -- -- 66
2017-11-16 14:00:00 21.8 12 Sur 15 Sur 0 -- -- 65
2017-11-16 13:00:00 21.1 12 Sudoeste 16 Sudoeste 0 -- -- 69
2017-11-16 12:00:00 19.4 4 Norte 14 Norte 0 -- -- 70
2017-11-16 11:00:00 17.1 6 Norte 14 Nordeste 0 -- -- 80
2017-11-16 10:00:00 14.2 7 Norte 14 Norte 0 -- -- 92
2017-11-16 09:00:00 12.1 8 Norte 13 Norte 0 -- -- 96
2017-11-16 08:00:00 11.3 8 Norte 14 Norte 0 -- -- 95
2017-11-16 07:00:00 11.5 7 Norte 13 Norte 0 -- -- 95
2017-11-16 06:00:00 11.6 8 Norte 12 Norte 0 -- -- 94
2017-11-16 05:00:00 11.8 6 Norte 15 Norte 0 -- -- 93
2017-11-16 04:00:00 12 10 Norte 15 Norte 0 -- -- 92
2017-11-16 03:00:00 12.1 7 Norte 14 Norte 0 -- -- 91
2017-11-16 02:00:00 12.4 6 Norte 10 Norte 0 -- -- 90
2017-11-16 01:00:00 12.5 5 Norte 11 Norte 0 -- -- 89
2017-11-16 00:00:00 12.6 7 Norte 19 Nordeste 0 -- -- 87
2017-11-15 23:00:00 13.6 12 Nordeste 24 Nordeste 0 -- -- 84
2017-11-15 22:00:00 13.6 3 Norte 24 Este 0 -- -- 82
2017-11-15 21:00:00 14.9 13 Nordeste 20 Este 0 -- -- 77
2017-11-15 20:00:00 15.3 7 Nordeste 23 Este 0 -- -- 74
2017-11-15 19:00:00 16.2 14 Este 23 Este 0 -- -- 71
2017-11-15 18:00:00 17.6 15 Este 35 Este 0 -- -- 68
2017-11-15 17:00:00 19 26 Este 39 Este 0 -- -- 62
2017-11-15 16:00:00 19.6 26 Este 41 Este 0 -- -- 64
2017-11-15 15:00:00 20 30 Este 43 Este 0 -- -- 64
2017-11-15 14:00:00 20.4 28 Este 41 Sudeste 0 -- -- 62
2017-11-15 13:00:00 20.4 23 Este 39 Este 0 -- -- 63
2017-11-15 12:00:00 20.1 21 Este 41 Sudeste 0 -- -- 67
2017-11-15 11:00:00 19.6 18 Este 37 Este 0 -- -- 68
2017-11-15 10:00:00 18.5 19 Sudeste 34 Este 0 -- -- 74
2017-11-15 09:00:00 16.5 4 Nordeste 31 Este 0 -- -- 82
2017-11-15 08:00:00 16.3 14 Este 32 Este 0 -- -- 83
2017-11-15 07:00:00 16.6 18 Este 38 Este 0 -- -- 80
2017-11-15 06:00:00 16.6 16 Este 35 Este 0 -- -- 81
2017-11-15 05:00:00 16.5 19 Este 35 Sudeste 0 -- -- 80
2017-11-15 04:00:00 15.5 13 Este 26 Este 0 -- -- 84
2017-11-15 03:00:00 15 12 Este 21 Este 0 -- -- 85
2017-11-15 02:00:00 14.7 12 Nordeste 22 Nordeste 0 -- -- 86
2017-11-15 01:00:00 14.4 16 Nordeste 21 Nordeste 0 -- -- 85
2017-11-15 00:00:00 14.5 9 Norte 22 Este 0 -- -- 84
2017-11-14 23:00:00 14.4 9 Nordeste 21 Nordeste 0 -- -- 85
2017-11-14 22:00:00 13 8 Nordeste 19 Este 0 -- -- 77
2017-11-14 21:00:00 13 5 Norte 12 Norte 0 -- -- 67
2017-11-14 20:00:00 12.8 8 Norte 12 Norte 0 -- -- 61
2017-11-14 19:00:00 14.8 9 Este 12 Este 0 -- -- 58
2017-11-14 18:00:00 18.2 7 Sur 15 Sur 0 -- -- 52
2017-11-14 17:00:00 19.6 12 Sur 17 Sur 0 -- -- 52
2017-11-14 16:00:00 20.5 11 Sur 14 Sur 0 -- -- 53
2017-11-14 15:00:00 20.8 9 Sur 15 Sudoeste 0 -- -- 55
2017-11-14 14:00:00 20.6 13 Oeste 15 Sudoeste 0 -- -- 61
2017-11-14 13:00:00 19.7 5 Sur 12 Sur 0 -- -- 62
2017-11-14 12:00:00 15.8 5 Nordeste 17 Nordeste 0 -- -- 68
2017-11-14 11:00:00 13.2 12 Nordeste 18 Nordeste 0 -- -- 81
2017-11-14 10:00:00 10.2 10 Nordeste 17 Nordeste 0 -- -- 99
2017-11-14 09:00:00 8 7 Norte 15 Nordeste 0 -- -- 100
2017-11-14 08:00:00 7.7 8 Norte 13 Nordeste 0 -- -- 99
2017-11-14 07:00:00 8.3 8 Norte 13 Norte 0 -- -- 99
2017-11-14 06:00:00 8.3 8 Norte 13 Nordeste 0 -- -- 99
2017-11-14 05:00:00 8.6 9 Nordeste 13 Nordeste 0 -- -- 98
2017-11-14 04:00:00 9.5 8 Nordeste 12 Norte 0 -- -- 98
2017-11-14 03:00:00 9.5 8 Norte 13 Norte 0 -- -- 97
2017-11-14 02:00:00 10 9 Norte 16 Norte 0 -- -- 95
2017-11-14 01:00:00 10.9 6 Norte 10 Norte 0 -- -- 94
2017-11-14 00:00:00 11.6 4 Norte 10 Norte 0 -- -- 92
2017-11-13 23:00:00 12.4 4 Norte 9 Norte 0 -- -- 90
2017-11-13 22:00:00 12.9 6 Nordeste 8 Nordeste 0 -- -- 88
2017-11-13 21:00:00 13.7 2 Sudeste 8 Nordeste 0 -- -- 84
2017-11-13 20:00:00 14.7 8 Este 17 Noroeste 0 -- -- 80
2017-11-13 19:00:00 16.2 12 Noroeste 20 Noroeste 0 -- -- 78
2017-11-13 18:00:00 17.8 12 Oeste 22 Oeste 0 -- -- 72
2017-11-13 17:00:00 19.3 17 Oeste 31 Oeste 0 -- -- 71
2017-11-13 16:00:00 19.5 24 Oeste 32 Oeste 0 -- -- 74
2017-11-13 15:00:00 19.8 23 Oeste 30 Oeste 0 -- -- 75
2017-11-13 14:00:00 19.5 26 Oeste 33 Oeste 0 -- -- 75
2017-11-13 13:00:00 19.2 26 Oeste 36 Oeste 0 -- -- 72
2017-11-13 12:00:00 19.8 10 Sur 14 Sudoeste 0 -- -- 72
2017-11-13 11:00:00 15.6 0 Calma 9 Nordeste 0 -- -- 89
2017-11-13 10:00:00 11.2 7 Nordeste 15 Norte 0 -- -- 98
2017-11-13 09:00:00 8.9 6 Norte 11 Nordeste 0 -- -- 100
2017-11-13 08:00:00 7.9 9 Norte 12 Norte 0 -- -- 98
2017-11-13 07:00:00 9.3 8 Norte 11 Norte 0 -- -- 99
2017-11-13 06:00:00 9.2 8 Norte 11 Nordeste 0 -- -- 98
2017-11-13 05:00:00 9.4 5 Norte 12 Norte 0 -- -- 97
2017-11-13 04:00:00 9.4 8 Norte 13 Nordeste 0 -- -- 96
2017-11-13 03:00:00 9.7 8 Norte 13 Norte 0 -- -- 96
2017-11-13 02:00:00 10.8 8 Norte 10 Norte 0 -- -- 94
2017-11-13 01:00:00 11.5 7 Norte 10 Norte 0 -- -- 93
2017-11-13 00:00:00 12.4 6 Norte 9 Norte 0 -- -- 91
2017-11-12 23:00:00 13.1 3 Norte 10 Nordeste 0 -- -- 88
2017-11-12 22:00:00 13.7 4 Este 6 Este 0 -- -- 84
2017-11-12 21:00:00 14.4 4 Sudeste 6 Este 0 -- -- 82
2017-11-12 20:00:00 15.9 3 Nordeste 15 Noroeste 0 -- -- 79
2017-11-12 19:00:00 17.3 13 Noroeste 22 Noroeste 0 -- -- 73
2017-11-12 18:00:00 19.4 15 Noroeste 23 Noroeste 0 -- -- 65
2017-11-12 17:00:00 21.3 15 Noroeste 26 Noroeste 0 -- -- 55
2017-11-12 16:00:00 20.7 18 Oeste 29 Oeste 0 -- -- 67
2017-11-12 15:00:00 21.7 19 Oeste 24 Oeste 0 -- -- 65
2017-11-12 14:00:00 21 15 Sudoeste 18 Sudoeste 0 -- -- 70
2017-11-12 13:00:00 20.5 11 Sudoeste 17 Sudoeste 0 -- -- 75
2017-11-12 12:00:00 20.6 10 Sudoeste 14 Sudoeste 0 -- -- 70
2017-11-12 11:00:00 16.4 0 Calma 11 Norte 0 -- -- 76
2017-11-12 10:00:00 12.1 8 Norte 12 Norte 0 -- -- 83
2017-11-12 09:00:00 8.5 7 Norte 15 Norte 0 -- -- 95
2017-11-12 08:00:00 7.7 8 Norte 11 Norte 0 -- -- 93
2017-11-12 07:00:00 8.1 8 Norte 11 Nordeste 0 -- -- 93
2017-11-12 06:00:00 8.2 10 Nordeste 12 Norte 0 -- -- 91
2017-11-12 05:00:00 8.8 9 Norte 14 Norte 0 -- -- 90
2017-11-12 04:00:00 9.7 10 Norte 14 Nordeste 0 -- -- 88
2017-11-12 03:00:00 10.1 10 Norte 13 Norte 0 -- -- 84
2017-11-12 02:00:00 11 10 Nordeste 13 Nordeste 0 -- -- 83
2017-11-12 01:00:00 11.9 7 Nordeste 17 Nordeste 0 -- -- 78
2017-11-12 00:00:00 12.6 7 Nordeste 13 Nordeste 0 -- -- 76
2017-11-11 23:00:00 13.4 7 Norte 14 Norte 0 -- -- 76
2017-11-11 22:00:00 14.2 8 Norte 12 Nordeste 0 -- -- 73
2017-11-11 21:00:00 15.2 5 Nordeste 16 Nordeste 0 -- -- 66
2017-11-11 20:00:00 16.5 9 Nordeste 13 Nordeste 0 -- -- 62
2017-11-11 19:00:00 18.1 2 Sudeste 8 Este 0 -- -- 63
2017-11-11 18:00:00 20.4 5 Sur 12 Sur 0 -- -- 68
2017-11-11 17:00:00 21.7 9 Sur 16 Oeste 0 -- -- 67
2017-11-11 16:00:00 22.9 14 Oeste 17 Oeste 0 -- -- 60
2017-11-11 15:00:00 22.3 15 Oeste 18 Oeste 0 -- -- 52
2017-11-11 14:00:00 22.8 12 Sudoeste 16 Oeste 0 -- -- 58
2017-11-11 13:00:00 22.2 9 Sudoeste 13 Sudoeste 0 -- -- 54
2017-11-11 12:00:00 19.1 6 Norte 15 Norte 0 -- -- 53
2017-11-11 11:00:00 15.1 8 Norte 14 Nordeste 0 -- -- 67
2017-11-11 10:00:00 12.3 6 Norte 19 Nordeste 0 -- -- 75
2017-11-11 09:00:00 9.2 12 Nordeste 19 Nordeste 0 -- -- 85
2017-11-11 08:00:00 7.5 14 Nordeste 16 Nordeste 0 -- -- 91
2017-11-11 07:00:00 8.1 9 Norte 20 Norte 0 -- -- 86
2017-11-11 06:00:00 8.5 10 Norte 15 Norte 0 -- -- 84
2017-11-11 05:00:00 8.6 8 Norte 13 Nordeste 0 -- -- 83
2017-11-11 04:00:00 9.4 12 Norte 18 Norte 0 -- -- 80
2017-11-11 03:00:00 9.5 5 Norte 14 Norte 0 -- -- 81
2017-11-11 02:00:00 9.7 10 Norte 16 Norte 0 -- -- 80
2017-11-11 01:00:00 10 10 Norte 15 Norte 0 -- -- 78
2017-11-11 00:00:00 11.2 8 Norte 12 Norte 0 -- -- 72
2017-11-10 23:00:00 12.1 6 Norte 10 Norte 0 -- -- 72
2017-11-10 22:00:00 12.5 6 Norte 9 Nordeste 0 -- -- 67
2017-11-10 21:00:00 13.7 5 Norte 10 Norte 0 -- -- 64
2017-11-10 20:00:00 15.3 3 Nordeste 7 Norte 0 -- -- 60
2017-11-10 19:00:00 17.1 3 Norte 18 Sudeste 0 -- -- 54
2017-11-10 18:00:00 18.7 15 Sudeste 26 Sudeste 0 -- -- 57
2017-11-10 17:00:00 20.4 15 Nordeste 33 Norte 0 -- -- 40
2017-11-10 16:00:00 21.4 19 Norte 34 Norte 0 -- -- 38
2017-11-10 15:00:00 21 17 Norte 33 Norte 0 -- -- 39
2017-11-10 14:00:00 20.2 17 Norte 32 Nordeste 0 -- -- 38
2017-11-10 13:00:00 19 17 Norte 33 Norte 0 -- -- 37
2017-11-10 12:00:00 17.4 15 Nordeste 27 Nordeste 0 -- -- 41
2017-11-10 11:00:00 15.1 11 Norte 19 Norte 0 -- -- 58
2017-11-10 10:00:00 11.3 7 Norte 16 Nordeste 0 -- -- 75
2017-11-10 09:00:00 8.5 10 Norte 25 Nordeste 0 -- -- 86
2017-11-10 08:00:00 7.5 16 Nordeste 24 Nordeste 0 -- -- 85
2017-11-10 07:00:00 7.9 12 Nordeste 18 Nordeste 0 -- -- 85
2017-11-10 06:00:00 7.8 15 Nordeste 19 Nordeste 0 -- -- 82
2017-11-10 05:00:00 8.6 6 Norte 17 Nordeste 0 -- -- 81
2017-11-10 04:00:00 9.1 14 Nordeste 19 Nordeste 0 -- -- 79
2017-11-10 03:00:00 9.1 8 Norte 13 Norte 0 -- -- 81
2017-11-10 02:00:00 9.9 10 Nordeste 13 Nordeste 0 -- -- 81
2017-11-10 01:00:00 10.6 6 Norte 11 Nordeste 0 -- -- 83
2017-11-10 00:00:00 11.2 6 Nordeste 12 Nordeste 0 -- -- 81
2017-11-09 23:00:00 12.6 5 Norte 13 Norte 0 -- -- 77
2017-11-09 22:00:00 14 9 Norte 14 Norte 0 -- -- 85
2017-11-09 21:00:00 14.9 8 Nordeste 14 Nordeste 0 -- -- 84
2017-11-09 20:00:00 15.8 13 Nordeste 17 Nordeste 0 -- -- 80
2017-11-09 19:00:00 16.8 8 Nordeste 21 Nordeste 0 -- -- 73
2017-11-09 18:00:00 18.1 17 Este 25 Este 0 -- -- 68
2017-11-09 17:00:00 20 17 Este 26 Este 0 -- -- 60
2017-11-09 16:00:00 20.9 13 Sudoeste 25 Sudoeste 0 -- -- 63
2017-11-09 15:00:00 21.2 15 Nordeste 23 Nordeste 0 -- -- 44
2017-11-09 14:00:00 21.7 10 Este 17 Norte 0 -- -- 47
2017-11-09 13:00:00 20.1 9 Norte 18 Nordeste 0 -- -- 50
2017-11-09 12:00:00 18.6 10 Norte 21 Norte 0 -- -- 53
2017-11-09 11:00:00 16.4 10 Norte 18 Norte 0 -- -- 65
2017-11-09 10:00:00 13.1 10 Nordeste 19 Norte 0 -- -- 84
2017-11-09 09:00:00 10.5 10 Nordeste 14 Nordeste 0 -- -- 94
2017-11-09 08:00:00 10.2 14 Nordeste 17 Norte 0 -- -- 95
2017-11-09 07:00:00 10.1 10 Norte 18 Nordeste 0 -- -- 97
2017-11-09 06:00:00 9.9 13 Nordeste 19 Nordeste 0 -- -- 96
2017-11-09 05:00:00 10.8 12 Nordeste 18 Nordeste 0 -- -- 95
2017-11-09 04:00:00 10.2 11 Nordeste 13 Nordeste 0 -- -- 96
2017-11-09 03:00:00 10.8 7 Nordeste 11 Nordeste 0 -- -- 93
2017-11-09 02:00:00 11.6 6 Norte 12 Nordeste 0 -- -- 92
2017-11-09 01:00:00 11.8 10 Nordeste 13 Nordeste 0 -- -- 91
2017-11-09 00:00:00 12.2 5 Norte 12 Norte 0 -- -- 90
2017-11-08 23:00:00 13.5 7 Norte 11 Norte 0 -- -- 87
2017-11-08 22:00:00 14.3 6 Norte 13 Nordeste 0 -- -- 86
2017-11-08 21:00:00 14.8 7 Nordeste 10 Nordeste 0 -- -- 84
2017-11-08 20:00:00 16 5 Nordeste 9 Nordeste 0 -- -- 81
2017-11-08 19:00:00 17.6 2 Sudoeste 8 Sudeste 0 -- -- 78
2017-11-08 18:00:00 20.2 5 Sur 15 Sudoeste 0 -- -- 76
2017-11-08 17:00:00 21 13 Sudoeste 22 Sudoeste 0 -- -- 69
2017-11-08 16:00:00 21.5 16 Sudoeste 20 Sudoeste 0 -- -- 67
2017-11-08 15:00:00 21.8 15 Sudoeste 19 Oeste 0 -- -- 65
2017-11-08 14:00:00 22.1 13 Oeste 16 Oeste 0 -- -- 68
2017-11-08 13:00:00 21.7 10 Oeste 14 Oeste 0 -- -- 69
2017-11-08 12:00:00 19.3 3 Norte 9 Norte 0 -- -- 69
2017-11-08 11:00:00 16.6 6 Norte 12 Norte 0 -- -- 88
2017-11-08 10:00:00 13.6 6 Norte 15 Norte 0 -- -- 98
2017-11-08 09:00:00 11.3 7 Norte 12 Norte 0 -- -- 99
2017-11-08 08:00:00 10.1 7 Norte 13 Nordeste 0 -- -- 99
2017-11-08 07:00:00 10.2 8 Nordeste 13 Norte 0 -- -- 99
2017-11-08 06:00:00 10.5 7 Norte 11 Nordeste 0 -- -- 98
2017-11-08 05:00:00 10.4 6 Nordeste 12 Nordeste 0 -- -- 97
2017-11-08 04:00:00 10.6 9 Nordeste 13 Norte 0 -- -- 97
2017-11-08 03:00:00 11 8 Norte 14 Norte 0 -- -- 97
2017-11-08 02:00:00 11.9 6 Norte 10 Nordeste 0 -- -- 96
2017-11-08 01:00:00 12.1 6 Norte 12 Nordeste 0 -- -- 94
2017-11-08 00:00:00 12.8 3 Nordeste 12 Nordeste 0 -- -- 89
2017-11-07 23:00:00 13.6 6 Norte 13 Nordeste 0 -- -- 84
2017-11-07 22:00:00 13.5 8 Norte 12 Norte 0 -- -- 70
2017-11-07 21:00:00 14.6 5 Norte 9 Noroeste 0 -- -- 77
2017-11-07 20:00:00 17.1 2 Nordeste 8 Norte 0 -- -- 80
2017-11-07 19:00:00 18.5 4 Oeste 7 Oeste 0 -- -- 81
2017-11-07 18:00:00 20.6 6 Sur 11 Sur 0 -- -- 75
2017-11-07 17:00:00 21.7 9 Sur 14 Sur 0 -- -- 70
2017-11-07 16:00:00 22.3 11 Sur 14 Sudoeste 0 -- -- 68
2017-11-07 15:00:00 23 12 Sudoeste 17 Sudoeste 0 -- -- 63
2017-11-07 14:00:00 23.1 12 Oeste 17 Oeste 0 -- -- 66
2017-11-07 13:00:00 21.8 4 Oeste 13 Norte 0 -- -- 65
2017-11-07 12:00:00 19.6 9 Norte 15 Norte 0 -- -- 71
2017-11-07 11:00:00 17.6 10 Nordeste 17 Nordeste 0 -- -- 77
2017-11-07 10:00:00 14.8 8 Norte 21 Norte 0 -- -- 90
2017-11-07 09:00:00 12.6 14 Nordeste 22 Nordeste 0 -- -- 94
2017-11-07 08:00:00 11.8 8 Norte 18 Norte 0 -- -- 95
2017-11-07 07:00:00 12 6 Norte 16 Norte 0 -- -- 94
2017-11-07 06:00:00 12.6 10 Norte 16 Nordeste 0 -- -- 94
2017-11-07 05:00:00 12.7 6 Norte 17 Norte 0 -- -- 94
2017-11-07 04:00:00 13.2 12 Norte 18 Norte 0 -- -- 94
2017-11-07 03:00:00 13.4 8 Norte 14 Norte 0 -- -- 92
2017-11-07 02:00:00 13.9 11 Norte 15 Norte 0 -- -- 91
2017-11-07 01:00:00 14.3 8 Norte 14 Norte 0 -- -- 91
2017-11-07 00:00:00 14.6 8 Norte 13 Norte 0 -- -- 90
2017-11-06 23:00:00 15.3 8 Norte 14 Norte 0 -- -- 89
2017-11-06 22:00:00 15.9 7 Norte 12 Norte 0 -- -- 88
2017-11-06 21:00:00 16.5 6 Norte 17 Nordeste 0 -- -- 87
2017-11-06 20:00:00 17 11 Nordeste 15 Nordeste 0 -- -- 85
2017-11-06 19:00:00 18.1 10 Este 22 Este 0 -- -- 82
2017-11-06 18:00:00 19.9 14 Este 34 Este 0 -- -- 72
2017-11-06 17:00:00 21.6 21 Este 33 Este 0 -- -- 66
2017-11-06 16:00:00 22.7 20 Este 34 Este 0 -- -- 63
2017-11-06 15:00:00 22.5 24 Este 39 Este 0 -- -- 63
2017-11-06 14:00:00 22.8 27 Este 39 Este 0 -- -- 62
2017-11-06 13:00:00 22.3 29 Este 44 Este 0 -- -- 64
2017-11-06 12:00:00 21.3 25 Este 36 Nordeste 0 -- -- 68
2017-11-06 11:00:00 17.7 5 Norte 15 Nordeste 0 -- -- 82
2017-11-06 10:00:00 14.5 10 Norte 18 Norte 0 -- -- 96
2017-11-06 09:00:00 12.8 9 Norte 18 Norte 0 -- -- 100
2017-11-06 08:00:00 12.1 9 Norte 17 Norte 0 -- -- 99
2017-11-06 07:00:00 12.4 9 Norte 16 Norte 0 -- -- 99
2017-11-06 06:00:00 12.6 8 Norte 14 Nordeste 0 -- -- 99
2017-11-06 05:00:00 13.1 7 Norte 13 Norte 0 -- -- 99
2017-11-06 04:00:00 12.9 10 Nordeste 13 Nordeste 0 -- -- 98
2017-11-06 03:00:00 13.6 12 Nordeste 15 Nordeste 0 -- -- 97
2017-11-06 02:00:00 13.4 10 Nordeste 14 Nordeste 0 -- -- 97
2017-11-06 01:00:00 13.7 12 Nordeste 23 Nordeste 0 -- -- 96
2017-11-06 00:00:00 14.2 14 Nordeste 17 Nordeste 0 -- -- 94
2017-11-05 23:00:00 14.9 6 Nordeste 10 Nordeste 0 -- -- 92
2017-11-05 22:00:00 15.5 4 Nordeste 7 Nordeste 0 -- -- 91
2017-11-05 21:00:00 16.3 4 Este 15 Norte 0 -- -- 89
2017-11-05 20:00:00 16.9 11 Norte 14 Norte 0 -- -- 85
2017-11-05 19:00:00 18.2 8 Norte 17 Noroeste 0 -- -- 79
2017-11-05 18:00:00 20.3 12 Noroeste 24 Oeste 0 -- -- 73
2017-11-05 17:00:00 21 16 Noroeste 30 Noroeste 0 -- -- 73
2017-11-05 16:00:00 21.3 18 Noroeste 25 Oeste 0 -- -- 71
2017-11-05 15:00:00 21.4 17 Noroeste 29 Oeste 0 -- -- 70
2017-11-05 14:00:00 20.8 24 Oeste 31 Oeste 0 -- -- 79
2017-11-05 13:00:00 20.9 21 Oeste 30 Oeste 0 -- -- 80
2017-11-05 12:00:00 20.8 13 Oeste 18 Noroeste 0 -- -- 80
2017-11-05 11:00:00 18.8 8 Noroeste 19 Noroeste 0.2 -- -- 84
2017-11-05 10:00:00 17 3 Nordeste 6 Nordeste 0 -- -- 92
2017-11-05 09:00:00 14.8 2 Norte 8 Norte 0 -- -- 97
2017-11-05 08:00:00 14.4 4 Norte 13 Nordeste 0 -- -- 96
2017-11-05 07:00:00 14.2 10 Nordeste 13 Nordeste 0 -- -- 95
2017-11-05 06:00:00 15.2 4 Nordeste 10 Este 0 -- -- 95
2017-11-05 05:00:00 15.3 9 Este 10 Este 0 -- -- 93
2017-11-05 04:00:00 16.2 4 Nordeste 7 Nordeste 0 -- -- 93
2017-11-05 03:00:00 16.5 5 Nordeste 8 Nordeste 0 -- -- 92
2017-11-05 02:00:00 17 3 Norte 11 Oeste 0 -- -- 90
2017-11-05 01:00:00 17.7 6 Noroeste 14 Noroeste 0 -- -- 90
2017-11-05 00:00:00 17.9 8 Noroeste 20 Oeste 0.6 -- -- 87
2017-11-04 23:00:00 18.7 13 Oeste 22 Noroeste 0 -- -- 83
2017-11-04 22:00:00 18.8 13 Oeste 21 Oeste 0 -- -- 83
2017-11-04 21:00:00 18.9 13 Oeste 21 Oeste 0 -- -- 81
2017-11-04 20:00:00 19.1 14 Noroeste 21 Oeste 0 -- -- 77
2017-11-04 19:00:00 19.5 13 Oeste 26 Noroeste 0 -- -- 78
2017-11-04 18:00:00 20.7 17 Oeste 32 Oeste 0 -- -- 73
2017-11-04 17:00:00 21.4 22 Oeste 35 Oeste 0 -- -- 74
2017-11-04 16:00:00 21.7 21 Oeste 39 Oeste 0 -- -- 70
2017-11-04 15:00:00 21.8 20 Oeste 42 Oeste 0 -- -- 72
2017-11-04 14:00:00 21.6 23 Oeste 37 Oeste 0 -- -- 71
2017-11-04 13:00:00 21.4 20 Noroeste 39 Oeste 0.2 -- -- 74
2017-11-04 12:00:00 20.5 21 Noroeste 35 Noroeste 0 -- -- 79
2017-11-04 11:00:00 19.4 13 Oeste 28 Oeste 0 -- -- 89
2017-11-04 10:00:00 19 13 Oeste 23 Oeste 1.4 -- -- 92
2017-11-04 09:00:00 18.6 21 Noroeste 37 Sudoeste 0 -- -- 86
2017-11-04 08:00:00 18.8 27 Sudoeste 35 Sudoeste 0 -- -- 95
2017-11-04 07:00:00 18.2 28 Sudoeste 43 Sudoeste 0.2 -- -- 92
2017-11-04 06:00:00 19.2 28 Sudoeste 39 Sudoeste 0 -- -- 94
2017-11-04 05:00:00 18.8 35 Sudoeste 44 Sudoeste 0 -- -- 95
2017-11-04 04:00:00 18.3 30 Sudoeste 53 Sudoeste 3.8 -- -- 97
2017-11-04 03:00:00 20 29 Sudoeste 35 Sudoeste 0 -- -- 90
2017-11-04 02:00:00 19.7 22 Sudoeste 31 Sudoeste 0 -- -- 88
2017-11-04 01:00:00 19.9 21 Sudoeste 28 Sudoeste 0 -- -- 92
2017-11-04 00:00:00 20 21 Sudoeste 25 Sudoeste 0 -- -- 94
2017-11-03 23:00:00 19.3 14 Sudoeste 17 Sudoeste 0 -- -- 94
2017-11-03 22:00:00 18.9 15 Sudoeste 22 Oeste 0 -- -- 93
2017-11-03 21:00:00 19.4 15 Oeste 30 Oeste 0 -- -- 95
2017-11-03 20:00:00 19.3 15 Oeste 24 Oeste 0 -- -- 96
2017-11-03 19:00:00 18.5 17 Oeste 35 Sudoeste 1 -- -- 93
2017-11-03 18:00:00 20.6 28 Sudoeste 36 Sudoeste 0 -- -- 92
2017-11-03 17:00:00 21.3 23 Sudoeste 27 Sudoeste 0 -- -- 88
2017-11-03 16:00:00 21.2 17 Sur 21 Sudoeste 0 -- -- 84
2017-11-03 15:00:00 22.2 15 Sudoeste 18 Sur 0 -- -- 74
2017-11-03 14:00:00 21.6 15 Sudoeste 24 Sur 0 -- -- 78
2017-11-03 13:00:00 22.6 21 Sur 29 Sur 0 -- -- 78
2017-11-03 12:00:00 21.9 23 Sur 31 Sur 0 -- -- 82
2017-11-03 11:00:00 21.7 24 Sur 29 Sur 0 -- -- 83
2017-11-03 10:00:00 20 17 Sudeste 22 Sudeste 0 -- -- 90
2017-11-03 09:00:00 16 5 Nordeste 8 Nordeste 0 -- -- 98
2017-11-03 08:00:00 15.4 6 Nordeste 8 Norte 0 -- -- 96
2017-11-03 07:00:00 16 4 Norte 7 Norte 0 -- -- 95
2017-11-03 06:00:00 16.7 5 Norte 9 Norte 0 -- -- 95
2017-11-03 05:00:00 16.6 4 Norte 12 Nordeste 0 -- -- 95
2017-11-03 04:00:00 17.3 4 Noroeste 10 Nordeste 0 -- -- 92
2017-11-03 03:00:00 18 3 Nordeste 7 Norte 0 -- -- 91
2017-11-03 02:00:00 17.7 2 Norte 10 Norte 0 -- -- 92
2017-11-03 01:00:00 18.2 5 Noroeste 13 Nordeste 0 -- -- 91
2017-11-03 00:00:00 17.7 10 Nordeste 15 Nordeste 0 -- -- 92
2017-11-02 23:00:00 17.8 7 Nordeste 10 Nordeste 0 -- -- 90
2017-11-02 22:00:00 18.6 4 Norte 7 Norte 0 -- -- 88
2017-11-02 21:00:00 19.2 0 Calma 8 Norte 0 -- -- 87
2017-11-02 20:00:00 19.7 6 Norte 11 Noroeste 0 -- -- 85
2017-11-02 19:00:00 20.2 4 Norte 14 Sudeste 0 -- -- 84
2017-11-02 18:00:00 20.9 4 Noroeste 28 Oeste 0 -- -- 84
2017-11-02 17:00:00 21.9 18 Oeste 26 Sudoeste 0 -- -- 81
2017-11-02 16:00:00 22.5 19 Oeste 25 Oeste 0 -- -- 78
2017-11-02 15:00:00 22.9 17 Oeste 25 Sudoeste 0 -- -- 75
2017-11-02 14:00:00 22.4 20 Sudoeste 24 Sudoeste 0 -- -- 80
2017-11-02 13:00:00 22.3 21 Sudoeste 35 Sudoeste 0 -- -- 81
2017-11-02 12:00:00 22.2 17 Sur 21 Sur 0 -- -- 80
2017-11-02 11:00:00 20.7 16 Sur 19 Sur 0 -- -- 87
2017-11-02 10:00:00 20.6 17 Sur 24 Sudeste 0 -- -- 87
2017-11-02 09:00:00 19.6 22 Sur 31 Sur 0 -- -- 93
2017-11-02 08:00:00 19.4 23 Sur 30 Sur 0 -- -- 92
2017-11-02 07:00:00 19.4 22 Sur 29 Sur 0 -- -- 93
2017-11-02 06:00:00 19.5 23 Sur 33 Sudeste 0 -- -- 92
2017-11-02 05:00:00 19.6 26 Sur 32 Sudeste 0 -- -- 90
2017-11-02 04:00:00 19.5 22 Sudeste 32 Sudeste 0 -- -- 85
2017-11-02 03:00:00 19.6 27 Sudeste 33 Sudeste 0 -- -- 86
2017-11-02 02:00:00 19.3 14 Sudeste 26 Sudeste 0 -- -- 82
2017-11-02 01:00:00 19 12 Sudeste 30 Sudeste 0 -- -- 83
2017-11-02 00:00:00 19.2 19 Sudeste 40 Sudeste 0 -- -- 84
2017-11-01 23:00:00 19.6 27 Sudeste 41 Sudeste 0 -- -- 81
2017-11-01 22:00:00 19.2 11 Sudeste 44 Sudeste 0 -- -- 83
2017-11-01 21:00:00 19.4 23 Sudeste 37 Sudeste 0 -- -- 82
2017-11-01 20:00:00 19.6 17 Sudeste 30 Sudeste 0 -- -- 81
2017-11-01 19:00:00 20.2 12 Sudeste 39 Sudeste 0 -- -- 76
2017-11-01 18:00:00 22 21 Sudeste 41 Sudeste 0 -- -- 70
2017-11-01 17:00:00 23.8 23 Sudeste 42 Este 0 -- -- 65
2017-11-01 16:00:00 24.8 24 Este 38 Este 0 -- -- 62
2017-11-01 15:00:00 25.5 25 Sudeste 44 Sudeste 0 -- -- 59
2017-11-01 14:00:00 26.2 26 Sudeste 42 Sudeste 0 -- -- 58
2017-11-01 13:00:00 25 28 Sudeste 51 Sudeste 0 -- -- 63
2017-11-01 12:00:00 24.4 30 Sudeste 46 Sudeste 0 -- -- 65
2017-11-01 11:00:00 23.8 25 Sudeste 46 Sudeste 0 -- -- 68
2017-11-01 10:00:00 22.1 28 Sudeste 50 Sudeste 0 -- -- 74
2017-11-01 09:00:00 20.4 28 Sudeste 54 Este 0 -- -- 81
2017-11-01 08:00:00 19.3 29 Sudeste 44 Sudeste 0 -- -- 83
2017-11-01 07:00:00 19.1 19 Sudeste 45 Sudeste 0 -- -- 84
2017-11-01 06:00:00 19.2 26 Sudeste 42 Sudeste 0 -- -- 83
2017-11-01 05:00:00 19.1 16 Sudeste 31 Sudeste 0 -- -- 82
2017-11-01 04:00:00 19.1 19 Sudeste 36 Sudeste 0 -- -- 83
2017-11-01 03:00:00 19.2 11 Sudeste 36 Sudeste 0 -- -- 82
2017-11-01 02:00:00 19.3 25 Sudeste 42 Sudeste 0 -- -- 83
2017-11-01 01:00:00 19.4 21 Sudeste 48 Sudeste 0 -- -- 83
2017-11-01 00:00:00 19.5 18 Sudeste 43 Sudeste 0 -- -- 83
2017-10-31 23:00:00 19.5 18 Sudeste 38 Sudeste 0 -- -- 83
2017-10-31 22:00:00 19.4 13 Sudeste 40 Sudeste 0 -- -- 83
2017-10-31 21:00:00 19.5 24 Sudeste 40 Sudeste 0 -- -- 81
2017-10-31 20:00:00 19.6 21 Sudeste 40 Sudeste 0 -- -- 79
2017-10-31 19:00:00 20 21 Sudeste 40 Sudeste 0 -- -- 78
2017-10-31 18:00:00 21.7 25 Sudeste 45 Sudeste 0 -- -- 73
2017-10-31 17:00:00 23.3 27 Sudeste 48 Este 0 -- -- 65
2017-10-31 16:00:00 24 35 Este 54 Sudeste 0 -- -- 62
2017-10-31 15:00:00 24.9 30 Este 49 Este 0 -- -- 57
2017-10-31 14:00:00 25 30 Este 47 Este 0 -- -- 58
2017-10-31 13:00:00 24.5 32 Este 46 Este 0 -- -- 59
2017-10-31 12:00:00 24.5 27 Sudeste 45 Sudeste 0 -- -- 62
2017-10-31 11:00:00 23.5 26 Sudeste 50 Este 0 -- -- 67
2017-10-31 10:00:00 21.8 34 Sudeste 46 Sudeste 0 -- -- 73
2017-10-31 09:00:00 19.9 21 Sudeste 37 Sudeste 0 -- -- 81
2017-10-31 08:00:00 18.5 19 Este 35 Este 0 -- -- 86
2017-10-31 07:00:00 18.3 17 Nordeste 31 Nordeste 0 -- -- 86
2017-10-31 06:00:00 18.1 18 Este 30 Este 0 -- -- 87
2017-10-31 05:00:00 18.4 18 Este 29 Sudeste 0 -- -- 86
2017-10-31 04:00:00 18.3 15 Este 30 Este 0 -- -- 87
2017-10-31 03:00:00 18.3 14 Este 31 Este 0 -- -- 85
2017-10-31 02:00:00 18.6 17 Este 32 Sudeste 0 -- -- 85
2017-10-31 01:00:00 18.7 15 Este 28 Este 0 -- -- 83
2017-10-31 00:00:00 19 19 Este 33 Sudeste 0 -- -- 81
2017-10-30 23:00:00 17.5 7 Nordeste 35 Nordeste 0 -- -- 88
2017-10-30 22:00:00 18.2 12 Nordeste 25 Este 0 -- -- 84
2017-10-30 21:00:00 17.8 5 Norte 11 Norte 0 -- -- 84
2017-10-30 20:00:00 18.8 6 Norte 14 Nordeste 0 -- -- 77
2017-10-30 19:00:00 20 12 Nordeste 21 Este 0 -- -- 70
2017-10-30 18:00:00 23.1 17 Este 27 Este 0 -- -- 58
2017-10-30 17:00:00 24.8 16 Este 35 Sudeste 0 -- -- 53
2017-10-30 16:00:00 23.8 26 Sur 31 Sur 0 -- -- 73
2017-10-30 15:00:00 24.6 23 Sur 33 Sur 0 -- -- 69
2017-10-30 14:00:00 24.5 22 Sur 29 Sur 0 -- -- 70
2017-10-30 13:00:00 25 15 Sur 21 Sur 0 -- -- 67
2017-10-30 12:00:00 25.1 12 Sudoeste 14 Sudoeste 0 -- -- 66
2017-10-30 11:00:00 23.6 8 Sudoeste 19 Este 0 -- -- 70
2017-10-30 10:00:00 19.3 8 Norte 16 Norte 0 -- -- 88
2017-10-30 09:00:00 16 8 Norte 14 Norte 0 -- -- 98
2017-10-30 08:00:00 14.5 6 Norte 10 Norte 0 -- -- 98
2017-10-30 07:00:00 15 5 Norte 10 Norte 0 -- -- 97
2017-10-30 06:00:00 15.3 7 Norte 13 Nordeste 0 -- -- 96
2017-10-30 05:00:00 15.4 6 Norte 10 Norte 0 -- -- 96
2017-10-30 04:00:00 15.8 6 Norte 11 Norte 0 -- -- 94
2017-10-30 03:00:00 16.3 6 Norte 10 Noroeste 0 -- -- 93
2017-10-30 02:00:00 16.5 6 Norte 13 Norte 0 -- -- 93
2017-10-30 01:00:00 17 6 Norte 13 Nordeste 0 -- -- 91
2017-10-30 00:00:00 17.2 8 Nordeste 13 Nordeste 0 -- -- 89
2017-10-29 23:00:00 17.4 7 Norte 10 Norte 0 -- -- 88
2017-10-29 22:00:00 18.2 6 Norte 14 Norte 0 -- -- 82
2017-10-29 21:00:00 19.2 8 Norte 21 Nordeste 0 -- -- 77
2017-10-29 20:00:00 20 13 Nordeste 23 Este 0 -- -- 75
2017-10-29 19:00:00 20.9 18 Este 27 Este 0 -- -- 71
2017-10-29 18:00:00 23.5 15 Este 26 Este 0 -- -- 61
2017-10-29 17:00:00 25.4 17 Este 26 Este 0 -- -- 56
2017-10-29 16:00:00 26.5 19 Este 27 Este 0 -- -- 54
2017-10-29 15:00:00 26.7 18 Este 32 Este 0 -- -- 54
2017-10-29 14:00:00 26.6 23 Este 36 Sudeste 0 -- -- 54
2017-10-29 13:00:00 27 17 Este 40 Este 0 -- -- 52
2017-10-29 12:00:00 25.9 14 Este 39 Este 0 -- -- 56
2017-10-29 11:00:00 24.7 17 Este 36 Sudeste 0 -- -- 60
2017-10-29 10:00:00 22.9 17 Este 38 Este 0 -- -- 66
2017-10-29 09:00:00 21 15 Sudeste 36 Este 0 -- -- 74
2017-10-29 08:00:00 18.9 12 Sudeste 24 Este 0 -- -- 82
2017-10-29 07:00:00 19.1 9 Este 26 Este 0 -- -- 80
2017-10-29 06:00:00 17.9 8 Nordeste 35 Nordeste 0 -- -- 85
2017-10-29 05:00:00 18.7 17 Este 33 Este 0 -- -- 82
2017-10-29 04:00:00 18.6 21 Nordeste 36 Este 0 -- -- 83
2017-10-29 03:00:00 18.6 12 Nordeste 36 Este 0 -- -- 81
2017-10-29 02:00:00 19.4 26 Este 44 Nordeste 0 -- -- 75
2017-10-29 01:00:00 19.3 9 Este 30 Este 0 -- -- 73
2017-10-29 00:00:00 19.3 13 Nordeste 34 Nordeste 0 -- -- 74
2017-10-28 23:00:00 19.2 20 Nordeste 44 Este 0 -- -- 77
2017-10-28 22:00:00 19.9 24 Este 41 Este 0 -- -- 74
2017-10-28 21:00:00 20.4 14 Este 39 Este 0 -- -- 65
2017-10-28 20:00:00 20.1 20 Este 42 Este 0 -- -- 75
2017-10-28 19:00:00 21.3 21 Nordeste 41 Este 0 -- -- 69
2017-10-28 18:00:00 22.8 21 Este 39 Este 0 -- -- 62
2017-10-28 17:00:00 24.1 26 Nordeste 35 Este 0 -- -- 58
2017-10-28 16:00:00 25.7 23 Este 42 Este 0 -- -- 53
2017-10-28 15:00:00 25.6 24 Este 37 Este 0 -- -- 53
2017-10-28 14:00:00 25.3 17 Este 29 Este 0 -- -- 53
2017-10-28 13:00:00 25.6 5 Sudoeste 9 Sudoeste 0 -- -- 61
2017-10-28 12:00:00 22.5 4 Sur 8 Norte 0 -- -- 65
2017-10-28 11:00:00 17.4 6 Norte 10 Norte 0 -- -- 72
2017-10-28 10:00:00 13.1 7 Nordeste 10 Norte 0 -- -- 87
2017-10-28 09:00:00 12.9 6 Norte 11 Nordeste 0 -- -- 90
2017-10-28 08:00:00 12.9 8 Nordeste 13 Nordeste 0 -- -- 88
2017-10-28 07:00:00 14.1 6 Nordeste 14 Nordeste 0 -- -- 84
2017-10-28 06:00:00 15.3 9 Norte 17 Norte 0 -- -- 79
2017-10-28 05:00:00 16 9 Norte 18 Nordeste 0 -- -- 78
2017-10-28 04:00:00 16.1 10 Nordeste 19 Norte 0 -- -- 81
2017-10-28 03:00:00 17.3 13 Norte 21 Norte 0 -- -- 76
2017-10-28 02:00:00 17.6 12 Norte 21 Norte 0 -- -- 76
2017-10-28 01:00:00 18.2 10 Norte 20 Norte 0 -- -- 76
2017-10-28 00:00:00 18.5 11 Norte 17 Norte 0 -- -- 72
2017-10-27 23:00:00 19.6 12 Norte 18 Norte 0 -- -- 66
2017-10-27 22:00:00 20.3 9 Norte 21 Norte 0 -- -- 64
2017-10-27 21:00:00 22.3 12 Nordeste 22 Nordeste 0 -- -- 51
2017-10-27 20:00:00 22.5 16 Este 22 Este 0 -- -- 54
2017-10-27 19:00:00 24.8 17 Este 32 Nordeste 0 -- -- 50
2017-10-27 18:00:00 26.7 22 Este 34 Este 0 -- -- 46
2017-10-27 17:00:00 28.3 19 Este 32 Nordeste 0 -- -- 39
2017-10-27 16:00:00 29.2 12 Este 31 Este 0 -- -- 39
2017-10-27 15:00:00 28.1 20 Este 33 Este 0 -- -- 45
2017-10-27 14:00:00 27.5 23 Este 35 Este 0 -- -- 50
2017-10-27 13:00:00 26.1 20 Este 42 Este 0 -- -- 58
2017-10-27 12:00:00 24.6 32 Este 47 Este 0 -- -- 59
2017-10-27 11:00:00 23.4 31 Este 59 Este 0 -- -- 65
2017-10-27 10:00:00 22.2 30 Nordeste 64 Nordeste 0 -- -- 66
2017-10-27 09:00:00 21.3 22 Nordeste 51 Este 0 -- -- 70
2017-10-27 08:00:00 21.4 22 Norte 54 Nordeste 0 -- -- 67
2017-10-27 07:00:00 21.3 19 Nordeste 41 Nordeste 0 -- -- 69
2017-10-27 06:00:00 20 10 Nordeste 29 Noroeste 0 -- -- 77
2017-10-27 05:00:00 19.9 17 Nordeste 34 Este 0 -- -- 80
2017-10-27 04:00:00 20.2 18 Este 39 Este 0 -- -- 78
2017-10-27 03:00:00 20 13 Nordeste 33 Este 0 -- -- 78
2017-10-27 02:00:00 20 6 Norte 20 Norte 0 -- -- 78
2017-10-27 01:00:00 20.6 8 Nordeste 29 Nordeste 0 -- -- 74
2017-10-27 00:00:00 20.7 9 Nordeste 48 Este 0 -- -- 73
2017-10-26 23:00:00 20.9 12 Sudeste 38 Este 0 -- -- 71
2017-10-26 22:00:00 20.9 14 Este 33 Sudeste 0 -- -- 70
2017-10-26 21:00:00 21 8 Norte 34 Sudeste 0 -- -- 67
2017-10-26 20:00:00 22.1 18 Este 56 Este 0 -- -- 58
2017-10-26 19:00:00 23.9 35 Este 55 Este 0 -- -- 46
2017-10-26 18:00:00 25.7 27 Este 48 Este 0 -- -- 43
2017-10-26 17:00:00 26.5 30 Este 55 Este 0 -- -- 44
2017-10-26 16:00:00 27.3 38 Este 53 Este 0 -- -- 41
2017-10-26 15:00:00 27.4 30 Este 49 Este 0 -- -- 41
2017-10-26 14:00:00 26.8 31 Este 47 Este 0 -- -- 44
2017-10-26 13:00:00 26.3 31 Este 46 Este 0 -- -- 49
2017-10-26 12:00:00 25.1 28 Este 43 Este 0 -- -- 53
2017-10-26 11:00:00 23.3 13 Este 28 Este 0 -- -- 65
2017-10-26 10:00:00 21.4 20 Nordeste 35 Este 0 -- -- 71
2017-10-26 09:00:00 20.5 24 Este 39 Nordeste 0 -- -- 70
2017-10-26 08:00:00 20.7 21 Nordeste 40 Nordeste 0 -- -- 67
2017-10-26 07:00:00 20.5 18 Norte 39 Nordeste 0 -- -- 70
2017-10-26 06:00:00 21 20 Nordeste 39 Nordeste 0 -- -- 64
2017-10-26 05:00:00 20.9 20 Norte 45 Norte 0 -- -- 66
2017-10-26 04:00:00 20.8 19 Norte 42 Nordeste 0 -- -- 67
2017-10-26 03:00:00 21.1 16 Norte 50 Nordeste 0 -- -- 66
2017-10-26 02:00:00 21.3 20 Norte 47 Sudeste 0 -- -- 65
2017-10-26 01:00:00 20.9 27 Este 45 Este 0 -- -- 69
2017-10-26 00:00:00 20.3 17 Nordeste 31 Nordeste 0 -- -- 74